Time;durP1;ratioP1;P1;durP2;ratioP2;P2;SDS_P1;SDS_P2;PMS_P1;PMS_P2;Temp;Humidity;BMP_temperature;BMP_pressure;BME280_temperature;BME280_humidity;BME280_pressure;Samples;Min_cycle;Max_cycle;Signal;HPM_P1;HPM_P2
2022/07/05 00:01:36;;;;;;;4.57;1.30;;;;;;;;;;4999157;28;20238;-59
2022/07/05 00:04:04;;;;;;;1.10;1.00;;;;;;;;;;4998945;28;20636;-59
2022/07/05 00:06:32;;;;;;;1.30;1.17;;;;;;;;;;4998473;28;20265;-59
2022/07/05 00:09:00;;;;;;;1.80;1.20;;;;;;;;;;4999380;28;20240;-59
2022/07/05 00:11:28;;;;;;;1.00;1.00;;;;;;;;;;5005984;28;20240;-59
2022/07/05 00:13:57;;;;;;;5.10;1.07;;;;;;;;;;5018538;28;20263;-59
2022/07/05 00:16:25;;;;;;;3.57;1.40;;;;;;;;;;5018596;28;20208;-59
2022/07/05 00:18:53;;;;;;;3.17;1.10;;;;;;;;;;5018647;28;20294;-59
2022/07/05 00:21:21;;;;;;;1.43;1.00;;;;;;;;;;5018636;28;20679;-59
2022/07/05 00:23:49;;;;;;;1.20;1.10;;;;;;;;;;5025402;28;20232;-59
2022/07/05 00:26:17;;;;;;;0.90;0.90;;;;;;;;;;4998858;28;20294;-59
2022/07/05 00:28:45;;;;;;;1.10;0.87;;;;;;;;;;4998006;28;20260;-59
2022/07/05 00:31:14;;;;;;;1.43;1.30;;;;;;;;;;4997321;28;20251;-59
2022/07/05 00:33:42;;;;;;;1.00;0.80;;;;;;;;;;5000541;28;20799;-59
2022/07/05 00:36:10;;;;;;;1.70;1.10;;;;;;;;;;5018854;28;20238;-59
2022/07/05 00:38:38;;;;;;;1.90;1.10;;;;;;;;;;4996931;28;20243;-59
2022/07/05 00:41:06;;;;;;;1.27;1.10;;;;;;;;;;5010011;28;20639;-59
2022/07/05 00:43:34;;;;;;;1.80;1.20;;;;;;;;;;4996162;28;20233;-59
2022/07/05 00:46:02;;;;;;;2.20;1.10;;;;;;;;;;4998474;28;20240;-59
2022/07/05 00:48:31;;;;;;;1.47;1.00;;;;;;;;;;4998190;28;20291;-59
2022/07/05 00:50:59;;;;;;;2.70;1.10;;;;;;;;;;4998338;28;20279;-59
2022/07/05 00:53:28;;;;;;;1.73;1.00;;;;;;;;;;4998560;28;20241;-59
2022/07/05 00:55:57;;;;;;;1.73;1.23;;;;;;;;;;4998400;28;20206;-59
2022/07/05 00:58:25;;;;;;;0.93;0.93;;;;;;;;;;4998092;28;20271;-59
2022/07/05 01:00:53;;;;;;;4.37;1.00;;;;;;;;;;4998260;28;20656;-59
2022/07/05 01:03:22;;;;;;;0.90;0.90;;;;;;;;;;4998357;28;20273;-59
2022/07/05 01:05:52;;;;;;;1.47;1.23;;;;;;;;;;4998538;28;20249;-59
2022/07/05 01:08:20;;;;;;;1.93;1.03;;;;;;;;;;4998278;28;20272;-59
2022/07/05 01:10:48;;;;;;;2.70;1.10;;;;;;;;;;4997910;28;20628;-59
2022/07/05 01:13:16;;;;;;;1.50;1.00;;;;;;;;;;4997744;28;20640;-59
2022/07/05 01:15:44;;;;;;;2.43;1.10;;;;;;;;;;4998214;28;20642;-59
2022/07/05 01:18:12;;;;;;;1.77;1.10;;;;;;;;;;4997999;28;20576;-59
2022/07/05 01:20:40;;;;;;;2.13;0.93;;;;;;;;;;4998304;28;20240;-59
2022/07/05 01:23:10;;;;;;;1.37;1.13;;;;;;;;;;5002182;28;20271;-59
2022/07/05 01:25:38;;;;;;;1.20;1.10;;;;;;;;;;4997857;28;20240;-59
2022/07/05 01:28:06;;;;;;;5.97;0.80;;;;;;;;;;4997911;28;20268;-59
2022/07/05 01:30:35;;;;;;;1.93;1.10;;;;;;;;;;4998350;28;20241;-59
2022/07/05 01:33:05;;;;;;;1.10;1.10;;;;;;;;;;4997914;28;20720;-59
2022/07/05 01:35:34;;;;;;;0.93;0.93;;;;;;;;;;5010584;28;20212;-59
2022/07/05 01:38:02;;;;;;;1.53;1.00;;;;;;;;;;4998257;28;20209;-59
2022/07/05 01:40:32;;;;;;;1.77;1.10;;;;;;;;;;5009215;28;20211;-59
2022/07/05 01:43:00;;;;;;;1.93;1.03;;;;;;;;;;4998938;28;20236;-59
2022/07/05 01:45:41;;;;;;;2.70;1.00;;;;;;;;;;4997965;28;20236;-59
2022/07/05 01:48:10;;;;;;;2.40;1.13;;;;;;;;;;5005897;28;20238;-59
2022/07/05 01:50:40;;;;;;;1.90;1.00;;;;;;;;;;5017694;28;20250;-59
2022/07/05 01:53:12;;;;;;;1.40;0.93;;;;;;;;;;5017477;28;20646;-59
2022/07/05 01:55:41;;;;;;;1.37;1.00;;;;;;;;;;5020963;28;20212;-59
2022/07/05 01:58:09;;;;;;;1.73;1.10;;;;;;;;;;5020987;28;20238;-59
2022/07/05 02:00:42;;;;;;;2.17;1.27;;;;;;;;;;5021201;28;20740;-59
2022/07/05 02:03:11;;;;;;;1.37;1.10;;;;;;;;;;5021117;28;20232;-59
2022/07/05 02:05:39;;;;;;;1.07;0.97;;;;;;;;;;5021221;28;20278;-59
2022/07/05 02:08:07;;;;;;;1.67;1.10;;;;;;;;;;5021145;28;20271;-59
2022/07/05 02:10:35;;;;;;;2.27;1.13;;;;;;;;;;5021236;28;20215;-59
2022/07/05 02:13:04;;;;;;;1.03;0.87;;;;;;;;;;5020875;28;20270;-59
2022/07/05 02:15:33;;;;;;;1.50;1.20;;;;;;;;;;5020959;28;20209;-59
2022/07/05 02:18:01;;;;;;;1.50;1.00;;;;;;;;;;5021144;28;20211;-59
2022/07/05 02:20:29;;;;;;;2.10;1.10;;;;;;;;;;5021203;28;20246;-59
2022/07/05 02:22:58;;;;;;;2.27;0.93;;;;;;;;;;5020316;28;20253;-59
2022/07/05 02:25:26;;;;;;;2.07;1.00;;;;;;;;;;5001269;28;20204;-59
2022/07/05 02:27:54;;;;;;;1.97;1.10;;;;;;;;;;5000963;28;20236;-59
2022/07/05 02:30:23;;;;;;;1.07;0.97;;;;;;;;;;5000354;28;20251;-59
2022/07/05 02:32:51;;;;;;;1.00;1.00;;;;;;;;;;5007995;28;20633;-59
2022/07/05 02:35:19;;;;;;;1.47;1.30;;;;;;;;;;5030464;28;20231;-59
2022/07/05 02:37:47;;;;;;;1.47;0.80;;;;;;;;;;5000805;28;20240;-59
2022/07/05 02:40:15;;;;;;;4.67;1.83;;;;;;;;;;5007524;28;20243;-59
2022/07/05 02:42:43;;;;;;;1.33;0.90;;;;;;;;;;5000786;28;20209;-59
2022/07/05 02:45:11;;;;;;;1.00;1.00;;;;;;;;;;5000944;28;20236;-59
2022/07/05 02:47:41;;;;;;;3.40;1.10;;;;;;;;;;5000903;28;20247;-59
2022/07/05 02:50:09;;;;;;;1.40;1.23;;;;;;;;;;5007428;28;20248;-59
2022/07/05 02:52:37;;;;;;;2.30;1.77;;;;;;;;;;5010489;28;20236;-59
2022/07/05 02:55:06;;;;;;;0.83;0.83;;;;;;;;;;5003012;28;20213;-59
2022/07/05 02:57:34;;;;;;;3.13;1.10;;;;;;;;;;5006615;28;20231;-59
2022/07/05 03:00:02;;;;;;;2.03;1.10;;;;;;;;;;5006798;28;20226;-59
2022/07/05 03:02:30;;;;;;;1.83;1.03;;;;;;;;;;5008312;28;20201;-59
2022/07/05 03:05:00;;;;;;;1.00;1.00;;;;;;;;;;5002734;28;20258;-59
2022/07/05 03:07:28;;;;;;;1.77;1.00;;;;;;;;;;5003793;28;20202;-59
2022/07/05 03:09:56;;;;;;;1.17;0.97;;;;;;;;;;5000337;28;20234;-59
2022/07/05 03:12:24;;;;;;;1.33;0.80;;;;;;;;;;5000415;28;20198;-59
2022/07/05 03:14:52;;;;;;;1.23;1.07;;;;;;;;;;4998279;28;20225;-59
2022/07/05 03:17:19;;;;;;;3.80;1.10;;;;;;;;;;4999665;28;20280;-59
2022/07/05 03:19:47;;;;;;;1.60;1.17;;;;;;;;;;5000129;28;20213;-59
2022/07/05 03:22:17;;;;;;;1.10;1.10;;;;;;;;;;4999993;28;20655;-59
2022/07/05 03:24:45;;;;;;;6.37;1.23;;;;;;;;;;5017229;28;20285;-59
2022/07/05 03:27:14;;;;;;;1.77;1.20;;;;;;;;;;4999827;28;20220;-59
2022/07/05 03:29:45;;;;;;;1.27;1.17;;;;;;;;;;5000143;28;20248;-59
2022/07/05 03:32:13;;;;;;;1.63;1.30;;;;;;;;;;5009117;28;20240;-59
2022/07/05 03:34:41;;;;;;;1.03;0.80;;;;;;;;;;5017522;28;20286;-59
2022/07/05 03:37:10;;;;;;;1.90;1.13;;;;;;;;;;4999870;28;20215;-59
2022/07/05 03:39:39;;;;;;;1.40;1.30;;;;;;;;;;4999601;28;20619;-59
2022/07/05 03:42:07;;;;;;;1.00;1.00;;;;;;;;;;4999439;28;20217;-59
2022/07/05 03:44:35;;;;;;;1.07;0.93;;;;;;;;;;4999559;28;20778;-59
2022/07/05 03:47:04;;;;;;;2.03;1.23;;;;;;;;;;4999719;28;20554;-59
2022/07/05 03:49:32;;;;;;;2.23;1.00;;;;;;;;;;4999571;28;20640;-59
2022/07/05 03:52:00;;;;;;;3.33;0.90;;;;;;;;;;4999810;28;20263;-59
2022/07/05 03:54:28;;;;;;;3.47;1.00;;;;;;;;;;4999745;28;20237;-60
2022/07/05 03:56:57;;;;;;;2.30;1.40;;;;;;;;;;4999220;28;20215;-59
2022/07/05 03:59:25;;;;;;;2.93;1.10;;;;;;;;;;4999251;28;20238;-59
2022/07/05 04:01:53;;;;;;;2.93;1.30;;;;;;;;;;4999352;28;20573;-59
2022/07/05 04:04:21;;;;;;;2.33;1.10;;;;;;;;;;4999328;28;20235;-59
2022/07/05 04:06:49;;;;;;;1.63;1.20;;;;;;;;;;4999330;28;20350;-59
2022/07/05 04:09:17;;;;;;;3.30;1.40;;;;;;;;;;4999117;28;20662;-59
2022/07/05 04:11:45;;;;;;;5.83;1.30;;;;;;;;;;4998786;28;20215;-59
2022/07/05 04:14:14;;;;;;;1.23;1.00;;;;;;;;;;4999144;28;20768;-59
2022/07/05 04:16:42;;;;;;;1.90;1.00;;;;;;;;;;4999068;28;20219;-59
2022/07/05 04:19:11;;;;;;;5.47;1.13;;;;;;;;;;4998371;28;20204;-59
2022/07/05 04:21:38;;;;;;;1.10;1.00;;;;;;;;;;4999292;28;20212;-59
2022/07/05 04:24:07;;;;;;;6.20;1.70;;;;;;;;;;5004711;28;20702;-59
2022/07/05 04:26:35;;;;;;;1.67;1.20;;;;;;;;;;5013429;28;20211;-59
2022/07/05 04:29:03;;;;;;;2.97;1.30;;;;;;;;;;5014369;28;20198;-59
2022/07/05 04:31:33;;;;;;;3.67;0.90;;;;;;;;;;5023492;28;20206;-59
2022/07/05 04:34:01;;;;;;;2.03;1.00;;;;;;;;;;5026813;28;20222;-59
2022/07/05 04:36:29;;;;;;;3.40;1.10;;;;;;;;;;5024488;28;20203;-59
2022/07/05 04:38:57;;;;;;;1.70;1.13;;;;;;;;;;5027834;28;20229;-59
2022/07/05 04:41:25;;;;;;;3.57;0.97;;;;;;;;;;5023035;28;20203;-59
2022/07/05 04:43:53;;;;;;;2.30;1.00;;;;;;;;;;5025012;28;20276;-59
2022/07/05 04:46:21;;;;;;;2.40;0.80;;;;;;;;;;5022574;28;20233;-59
2022/07/05 04:48:50;;;;;;;3.87;1.10;;;;;;;;;;5027281;28;20207;-59
2022/07/05 04:51:18;;;;;;;1.83;0.90;;;;;;;;;;5027066;28;20254;-60
2022/07/05 04:53:46;;;;;;;2.83;1.37;;;;;;;;;;5024658;28;20231;-59
2022/07/05 04:56:14;;;;;;;1.60;1.20;;;;;;;;;;5023825;28;20195;-59
2022/07/05 04:58:42;;;;;;;1.37;1.17;;;;;;;;;;5024485;28;20231;-59
2022/07/05 05:01:10;;;;;;;4.83;1.00;;;;;;;;;;5021585;28;20233;-59
2022/07/05 05:03:38;;;;;;;4.20;1.13;;;;;;;;;;5026799;28;20262;-59
2022/07/05 05:06:08;;;;;;;4.77;1.03;;;;;;;;;;5024186;28;20577;-59
2022/07/05 05:08:36;;;;;;;3.80;1.10;;;;;;;;;;5023532;28;20203;-59
2022/07/05 05:11:05;;;;;;;2.03;1.00;;;;;;;;;;5024205;28;20250;-59
2022/07/05 05:13:33;;;;;;;0.90;0.80;;;;;;;;;;5029692;28;20719;-59
2022/07/05 05:16:01;;;;;;;1.97;0.60;;;;;;;;;;4998009;28;20242;-59
2022/07/05 05:18:30;;;;;;;3.70;0.90;;;;;;;;;;4998330;28;20255;-59
2022/07/05 05:20:58;;;;;;;0.80;0.77;;;;;;;;;;4998086;28;20211;-59
2022/07/05 05:23:27;;;;;;;1.20;1.00;;;;;;;;;;5008195;28;20258;-59
2022/07/05 05:25:55;;;;;;;2.03;1.00;;;;;;;;;;5021168;28;20213;-59
2022/07/05 05:28:23;;;;;;;1.23;0.90;;;;;;;;;;5001587;28;20243;-60
2022/07/05 05:30:51;;;;;;;1.00;0.70;;;;;;;;;;5002103;28;20270;-59
2022/07/05 05:33:19;;;;;;;2.33;1.30;;;;;;;;;;5015324;28;20226;-59
2022/07/05 05:35:54;;;;;;;2.30;1.00;;;;;;;;;;5002435;28;20294;-59
2022/07/05 05:38:22;;;;;;;1.63;1.20;;;;;;;;;;5002161;28;20235;-59
2022/07/05 05:40:51;;;;;;;1.67;0.90;;;;;;;;;;5001690;28;20702;-59
2022/07/05 05:43:19;;;;;;;2.93;1.00;;;;;;;;;;5001570;28;20263;-59
2022/07/05 05:45:47;;;;;;;1.90;1.23;;;;;;;;;;5002200;28;20264;-59
2022/07/05 05:48:15;;;;;;;3.90;1.00;;;;;;;;;;5002091;28;20207;-59
2022/07/05 05:50:43;;;;;;;2.40;1.13;;;;;;;;;;5001906;28;20265;-60
2022/07/05 05:53:11;;;;;;;0.90;0.87;;;;;;;;;;5001595;28;20644;-59
2022/07/05 05:55:40;;;;;;;1.57;1.07;;;;;;;;;;5001493;28;20211;-60
2022/07/05 05:58:14;;;;;;;4.23;1.23;;;;;;;;;;5001464;28;20244;-59
2022/07/05 06:00:42;;;;;;;3.90;0.80;;;;;;;;;;5001435;28;20235;-59
2022/07/05 06:03:10;;;;;;;0.83;0.83;;;;;;;;;;5001776;28;20275;-59
2022/07/05 06:05:38;;;;;;;4.83;1.30;;;;;;;;;;5001456;28;20243;-59
2022/07/05 06:08:06;;;;;;;3.83;0.80;;;;;;;;;;5001432;28;20680;-59
2022/07/05 06:10:35;;;;;;;3.17;1.20;;;;;;;;;;5016445;28;20309;-59
2022/07/05 06:13:04;;;;;;;1.50;0.80;;;;;;;;;;5028733;28;20232;-59
2022/07/05 06:15:33;;;;;;;1.30;1.20;;;;;;;;;;5024873;28;20235;-59
2022/07/05 06:18:01;;;;;;;4.47;1.00;;;;;;;;;;5030434;28;20240;-58
2022/07/05 06:20:29;;;;;;;3.20;0.80;;;;;;;;;;5026380;28;20229;-59
2022/07/05 06:22:58;;;;;;;1.03;0.80;;;;;;;;;;5023515;28;20245;-58
2022/07/05 06:25:26;;;;;;;4.93;1.00;;;;;;;;;;5001052;28;20205;-59
2022/07/05 06:27:55;;;;;;;9.37;2.00;;;;;;;;;;5014395;28;20209;-58
2022/07/05 06:30:25;;;;;;;6.73;1.53;;;;;;;;;;5013635;28;20271;-58
2022/07/05 06:32:55;;;;;;;6.47;1.00;;;;;;;;;;5013356;28;20638;-58
2022/07/05 06:35:24;;;;;;;4.97;1.07;;;;;;;;;;5015888;28;20615;-59
2022/07/05 06:37:54;;;;;;;1.53;0.90;;;;;;;;;;5001359;28;20216;-59
2022/07/05 06:40:31;;;;;;;5.70;1.33;;;;;;;;;;4999926;28;20210;-59
2022/07/05 06:43:01;;;;;;;1.37;0.70;;;;;;;;;;5000873;28;20216;-59
2022/07/05 06:45:34;;;;;;;3.50;0.93;;;;;;;;;;5001341;28;20216;-59
2022/07/05 06:48:12;;;;;;;1.10;0.70;;;;;;;;;;5008442;28;20211;-59
2022/07/05 06:50:44;;;;;;;0.93;0.87;;;;;;;;;;5020869;28;20314;-59
2022/07/05 06:53:16;;;;;;;5.70;1.90;;;;;;;;;;5021112;28;20230;-58
2022/07/05 06:55:47;;;;;;;7.67;2.13;;;;;;;;;;5020948;28;20340;-59
2022/07/05 06:58:26;;;;;;;3.63;0.90;;;;;;;;;;5020270;28;20239;-59
2022/07/05 07:00:58;;;;;;;2.30;0.87;;;;;;;;;;5020629;28;20245;-59
2022/07/05 07:03:53;;;;;;;1.30;1.03;;;;;;;;;;5019363;28;20317;-59
2022/07/05 07:06:45;;;;;;;1.30;1.20;;;;;;;;;;5020347;28;20212;-59
2022/07/05 07:09:21;;;;;;;1.07;0.80;;;;;;;;;;5020333;28;20216;-57
2022/07/05 07:11:51;;;;;;;1.13;0.90;;;;;;;;;;5019297;28;20270;-59
2022/07/05 07:14:19;;;;;;;1.87;1.07;;;;;;;;;;5019808;28;20232;-59
2022/07/05 07:16:47;;;;;;;3.33;1.10;;;;;;;;;;5019926;28;20216;-59
2022/07/05 07:19:17;;;;;;;2.87;0.80;;;;;;;;;;5019587;28;20627;-59
2022/07/05 07:21:45;;;;;;;4.87;1.20;;;;;;;;;;5019986;28;20205;-60
2022/07/05 07:24:13;;;;;;;3.10;1.20;;;;;;;;;;5009934;28;20265;-59
2022/07/05 07:29:26;;;;;;;3.77;1.17;;;;;;;;;;5000123;28;20209;-59
2022/07/05 07:31:55;;;;;;;9.37;1.10;;;;;;;;;;5006360;28;20264;-59
2022/07/05 07:34:25;;;;;;;5.60;1.20;;;;;;;;;;5020069;28;20741;-59
2022/07/05 07:36:53;;;;;;;5.20;1.20;;;;;;;;;;5000164;28;20240;-59
2022/07/05 07:39:21;;;;;;;1.27;1.03;;;;;;;;;;4999971;28;20249;-60
2022/07/05 07:41:48;;;;;;;1.60;1.00;;;;;;;;;;5006396;28;20206;-59
2022/07/05 07:44:16;;;;;;;1.70;0.80;;;;;;;;;;5025349;28;20235;-60
2022/07/05 07:46:44;;;;;;;2.40;1.30;;;;;;;;;;5013952;28;20208;-60
2022/07/05 07:49:13;;;;;;;6.30;1.40;;;;;;;;;;4999478;28;20215;-60
2022/07/05 07:51:42;;;;;;;2.53;0.87;;;;;;;;;;5003927;28;20252;-60
2022/07/05 07:54:10;;;;;;;3.17;0.97;;;;;;;;;;5015980;28;20751;-59
2022/07/05 07:56:41;;;;;;;0.90;0.70;;;;;;;;;;5010680;28;20200;-60
2022/07/05 07:59:09;;;;;;;2.67;1.23;;;;;;;;;;4999128;28;20323;-59
2022/07/05 08:01:37;;;;;;;5.23;1.20;;;;;;;;;;5006598;28;20222;-61
2022/07/05 08:04:12;;;;;;;2.27;1.50;;;;;;;;;;5000631;28;20687;-58
2022/07/05 08:06:43;;;;;;;1.73;1.10;;;;;;;;;;4999181;28;20255;-59
2022/07/05 08:09:14;;;;;;;2.07;1.03;;;;;;;;;;5006010;28;20222;-59
2022/07/05 08:11:45;;;;;;;1.83;0.80;;;;;;;;;;5004717;28;20246;-59
2022/07/05 08:14:13;;;;;;;1.37;0.90;;;;;;;;;;5015656;28;20267;-59
2022/07/05 08:16:41;;;;;;;0.90;0.80;;;;;;;;;;5018456;28;20580;-59
2022/07/05 08:22:04;;;;;;;3.93;1.20;;;;;;;;;;5018384;28;20617;-60
2022/07/05 08:24:32;;;;;;;1.80;0.90;;;;;;;;;;5009295;28;20599;-59
2022/07/05 08:27:01;;;;;;;4.80;0.90;;;;;;;;;;5012799;28;20208;-59
2022/07/05 08:29:29;;;;;;;2.13;1.00;;;;;;;;;;5008051;28;20630;-59
2022/07/05 08:31:57;;;;;;;1.97;0.87;;;;;;;;;;5018316;28;20698;-59
2022/07/05 08:34:25;;;;;;;4.40;1.47;;;;;;;;;;5018843;28;20240;-59
2022/07/05 08:36:53;;;;;;;0.90;0.70;;;;;;;;;;4998805;28;20209;-60
2022/07/05 08:39:23;;;;;;;0.80;0.80;;;;;;;;;;4998363;28;20216;-59
2022/07/05 08:41:51;;;;;;;1.00;1.00;;;;;;;;;;4998370;28;20232;-59
2022/07/05 08:44:20;;;;;;;4.30;1.10;;;;;;;;;;4998276;28;20233;-59
2022/07/05 08:46:50;;;;;;;1.33;1.20;;;;;;;;;;5003596;28;20202;-59
2022/07/05 08:49:21;;;;;;;3.03;1.20;;;;;;;;;;5018077;28;20209;-59
2022/07/05 08:51:50;;;;;;;2.60;0.90;;;;;;;;;;5017757;28;20728;-59
2022/07/05 08:54:18;;;;;;;3.83;1.03;;;;;;;;;;5018986;28;20280;-59
2022/07/05 08:56:48;;;;;;;2.60;1.10;;;;;;;;;;5025117;28;20376;-59
2022/07/05 08:59:36;;;;;;;4.60;1.07;;;;;;;;;;5015681;28;20239;-59
2022/07/05 09:02:04;;;;;;;1.30;0.90;;;;;;;;;;5019000;28;20205;-59
2022/07/05 09:04:37;;;;;;;1.03;0.90;;;;;;;;;;5010702;28;20225;-59
2022/07/05 09:07:07;;;;;;;1.67;0.77;;;;;;;;;;5001257;28;20216;-59
2022/07/05 09:09:42;;;;;;;1.57;0.90;;;;;;;;;;5004357;28;20204;-59
2022/07/05 09:12:14;;;;;;;1.43;1.00;;;;;;;;;;5000415;28;20229;-58
2022/07/05 09:14:53;;;;;;;3.63;1.00;;;;;;;;;;4998013;28;20265;-59
2022/07/05 09:17:21;;;;;;;1.33;0.93;;;;;;;;;;4998183;28;20267;-59
2022/07/05 09:20:06;;;;;;;0.73;0.73;;;;;;;;;;5020120;28;20198;-58
2022/07/05 09:22:42;;;;;;;0.67;0.53;;;;;;;;;;5024507;28;20656;-58
2022/07/05 09:25:14;;;;;;;2.80;0.93;;;;;;;;;;5022860;28;20202;-59
2022/07/05 09:27:49;;;;;;;1.17;0.70;;;;;;;;;;5005882;28;20689;-58
2022/07/05 09:30:36;;;;;;;0.87;0.70;;;;;;;;;;4998053;28;20669;-60
2022/07/05 09:33:04;;;;;;;2.13;0.90;;;;;;;;;;5011214;28;20320;-61
2022/07/05 09:35:34;;;;;;;4.97;0.63;;;;;;;;;;5012626;28;20214;-60
2022/07/05 09:38:04;;;;;;;7.13;1.73;;;;;;;;;;5005083;28;20231;-60
2022/07/05 09:40:32;;;;;;;1.60;0.53;;;;;;;;;;5017490;28;20281;-60
2022/07/05 09:43:17;;;;;;;1.90;0.60;;;;;;;;;;5018445;28;20233;-59
2022/07/05 09:45:56;;;;;;;0.67;0.43;;;;;;;;;;5018520;28;20209;-58
2022/07/05 09:48:36;;;;;;;1.03;0.57;;;;;;;;;;5018698;28;20244;-60
2022/07/05 09:51:19;;;;;;;1.10;0.57;;;;;;;;;;5000037;28;20558;-58
2022/07/05 09:54:10;;;;;;;0.97;0.60;;;;;;;;;;4999005;28;20712;-59
2022/07/05 09:56:46;;;;;;;1.03;0.60;;;;;;;;;;4998547;28;20215;-59
2022/07/05 09:59:21;;;;;;;0.60;0.60;;;;;;;;;;4998377;28;20244;-59
2022/07/05 10:01:53;;;;;;;2.70;0.70;;;;;;;;;;4998681;28;20213;-59
2022/07/05 10:04:24;;;;;;;1.90;0.70;;;;;;;;;;4998750;28;20234;-60
2022/07/05 10:07:03;;;;;;;0.80;0.80;;;;;;;;;;4998750;28;20219;-59
2022/07/05 10:09:35;;;;;;;0.77;0.77;;;;;;;;;;4999026;28;20217;-60
2022/07/05 10:12:11;;;;;;;0.93;0.70;;;;;;;;;;4999284;28;20211;-59
2022/07/05 10:14:45;;;;;;;6.40;0.87;;;;;;;;;;5000084;28;20246;-60
2022/07/05 10:17:23;;;;;;;0.83;0.57;;;;;;;;;;5003211;28;20297;-60
2022/07/05 10:19:53;;;;;;;1.60;0.60;;;;;;;;;;5006654;28;20207;-60
2022/07/05 10:22:27;;;;;;;1.73;0.80;;;;;;;;;;5009822;28;20215;-60
2022/07/05 10:25:02;;;;;;;0.97;0.60;;;;;;;;;;5010554;28;20228;-60
2022/07/05 10:27:36;;;;;;;3.07;0.70;;;;;;;;;;5002076;28;20206;-60
2022/07/05 10:30:21;;;;;;;1.50;0.57;;;;;;;;;;5002350;28;20231;-60
2022/07/05 10:32:57;;;;;;;0.93;0.70;;;;;;;;;;5015328;28;20275;-60
2022/07/05 10:35:29;;;;;;;5.57;1.17;;;;;;;;;;5016802;28;20708;-60
2022/07/05 10:40:51;;;;;;;6.23;0.83;;;;;;;;;;5020966;28;20208;-59
2022/07/05 10:43:26;;;;;;;1.20;0.90;;;;;;;;;;5021285;28;20251;-60
2022/07/05 10:45:59;;;;;;;1.83;0.77;;;;;;;;;;5021990;28;20206;-60
2022/07/05 10:48:30;;;;;;;0.60;0.60;;;;;;;;;;5021220;28;20209;-60
2022/07/05 10:51:04;;;;;;;0.93;0.60;;;;;;;;;;5020840;28;20584;-60
2022/07/05 10:53:59;;;;;;;2.20;0.50;;;;;;;;;;5019495;28;20237;-59
2022/07/05 10:56:27;;;;;;;1.90;0.80;;;;;;;;;;5014522;28;20697;-59
2022/07/05 10:59:04;;;;;;;4.17;0.80;;;;;;;;;;5005874;28;20278;-60
2022/07/05 11:01:35;;;;;;;0.97;0.67;;;;;;;;;;5004279;28;20573;-61
2022/07/05 11:04:21;;;;;;;1.70;1.10;;;;;;;;;;5000537;28;20308;-62
2022/07/05 11:10:18;;;;;;;1.10;0.70;;;;;;;;;;5003750;28;20205;-59
2022/07/05 11:12:46;;;;;;;1.63;0.67;;;;;;;;;;5017423;28;20784;-59
2022/07/05 11:15:14;;;;;;;1.57;0.80;;;;;;;;;;5020797;28;20636;-58
2022/07/05 11:17:44;;;;;;;1.40;0.80;;;;;;;;;;5011379;28;20238;-59
2022/07/05 11:20:28;;;;;;;4.83;1.00;;;;;;;;;;5000068;28;20578;-59
2022/07/05 11:23:06;;;;;;;1.30;0.57;;;;;;;;;;5024487;28;20197;-58
2022/07/05 11:25:35;;;;;;;0.83;0.70;;;;;;;;;;5021146;28;20210;-59
2022/07/05 11:28:08;;;;;;;2.80;0.90;;;;;;;;;;5026557;28;20198;-58
2022/07/05 11:31:00;;;;;;;0.97;0.70;;;;;;;;;;5016116;28;20220;-59
2022/07/05 11:33:32;;;;;;;3.80;0.37;;;;;;;;;;4994308;28;20278;-59
2022/07/05 11:36:01;;;;;;;4.60;0.80;;;;;;;;;;5013117;28;20247;-59
2022/07/05 11:38:30;;;;;;;0.50;0.50;;;;;;;;;;5006322;28;20717;-59
2022/07/05 11:41:18;;;;;;;1.03;0.60;;;;;;;;;;5018676;28;20217;-58
2022/07/05 11:43:55;;;;;;;1.60;0.70;;;;;;;;;;5009438;28;20227;-59
2022/07/05 11:46:24;;;;;;;3.30;0.70;;;;;;;;;;5008393;28;20210;-59
2022/07/05 11:49:19;;;;;;;1.60;0.80;;;;;;;;;;5019075;28;20211;-59
2022/07/05 11:51:54;;;;;;;4.53;0.90;;;;;;;;;;5019062;28;20221;-59
2022/07/05 11:54:23;;;;;;;0.93;0.50;;;;;;;;;;5015702;28;20230;-59
2022/07/05 11:56:51;;;;;;;1.53;0.80;;;;;;;;;;4999087;28;20216;-59
2022/07/05 11:59:20;;;;;;;3.50;0.83;;;;;;;;;;4998973;28;20673;-58
2022/07/05 12:01:49;;;;;;;0.97;0.63;;;;;;;;;;4999230;28;20246;-58
2022/07/05 12:04:25;;;;;;;2.00;0.70;;;;;;;;;;5015079;28;20291;-58
2022/07/05 12:06:54;;;;;;;3.70;0.80;;;;;;;;;;5018873;28;20288;-58
2022/07/05 12:09:23;;;;;;;1.13;0.60;;;;;;;;;;5012280;28;20209;-58
2022/07/05 12:14:37;;;;;;;1.00;0.70;;;;;;;;;;5019105;28;20258;-58
2022/07/05 12:17:12;;;;;;;0.90;0.70;;;;;;;;;;5026053;28;20233;-58
2022/07/05 12:19:47;;;;;;;2.40;0.97;;;;;;;;;;4999076;28;20688;-58
2022/07/05 12:22:15;;;;;;;1.13;0.80;;;;;;;;;;4999144;28;20554;-59
2022/07/05 12:24:43;;;;;;;1.27;0.70;;;;;;;;;;5012373;28;20250;-58
2022/07/05 12:27:11;;;;;;;0.67;0.67;;;;;;;;;;5022505;28;20214;-58
2022/07/05 12:29:39;;;;;;;2.17;0.63;;;;;;;;;;5008338;28;20234;-58
2022/07/05 12:32:09;;;;;;;0.57;0.50;;;;;;;;;;5007516;28;20627;-58
2022/07/05 12:34:38;;;;;;;2.23;0.87;;;;;;;;;;5008918;28;20338;-59
2022/07/05 12:37:07;;;;;;;0.67;0.50;;;;;;;;;;5014744;28;20214;-59
2022/07/05 12:39:35;;;;;;;0.60;0.57;;;;;;;;;;5003844;28;20256;-59
2022/07/05 12:42:03;;;;;;;1.30;0.53;;;;;;;;;;5014164;28;20328;-58
2022/07/05 12:44:31;;;;;;;1.80;0.70;;;;;;;;;;5018177;28;20228;-59
2022/07/05 12:47:04;;;;;;;1.37;0.53;;;;;;;;;;5018121;28;20259;-59
2022/07/05 12:49:32;;;;;;;2.50;1.07;;;;;;;;;;5020089;28;20228;-59
2022/07/05 12:52:04;;;;;;;0.90;0.60;;;;;;;;;;5033057;28;20567;-58
2022/07/05 13:00:07;;;;;;;0.87;0.50;;;;;;;;;;4998276;28;20558;-59
2022/07/05 13:02:37;;;;;;;5.43;0.70;;;;;;;;;;4998525;28;20212;-58
2022/07/05 13:05:07;;;;;;;0.57;0.57;;;;;;;;;;5001188;28;20223;-59
2022/07/05 13:07:42;;;;;;;1.30;0.60;;;;;;;;;;4998108;28;20213;-59
2022/07/05 13:10:21;;;;;;;0.53;0.30;;;;;;;;;;5003336;28;20227;-59
2022/07/05 13:12:49;;;;;;;0.73;0.57;;;;;;;;;;5006989;28;20267;-59
2022/07/05 13:15:18;;;;;;;1.50;0.87;;;;;;;;;;4998411;28;20267;-59
2022/07/05 13:17:46;;;;;;;3.50;0.47;;;;;;;;;;5007459;28;20279;-59
2022/07/05 13:20:17;;;;;;;1.27;0.73;;;;;;;;;;5017644;28;20218;-59
2022/07/05 13:22:46;;;;;;;5.83;0.70;;;;;;;;;;5018849;28;20203;-59
2022/07/05 13:25:14;;;;;;;0.60;0.40;;;;;;;;;;4999187;28;20265;-59
2022/07/05 13:27:43;;;;;;;0.87;0.77;;;;;;;;;;5000486;28;20210;-58
2022/07/05 13:30:12;;;;;;;0.80;0.80;;;;;;;;;;5002477;28;20207;-59
2022/07/05 13:32:40;;;;;;;1.33;0.90;;;;;;;;;;5010818;28;20213;-59
2022/07/05 13:35:23;;;;;;;1.27;0.70;;;;;;;;;;5012554;28;20262;-59
2022/07/05 13:37:51;;;;;;;1.47;0.60;;;;;;;;;;5016848;28;20204;-58
2022/07/05 13:40:19;;;;;;;2.03;0.50;;;;;;;;;;5016909;28;20227;-59
2022/07/05 13:42:48;;;;;;;2.37;0.50;;;;;;;;;;5014719;28;20671;-59
2022/07/05 13:45:16;;;;;;;0.63;0.63;;;;;;;;;;5005567;28;20196;-58
2022/07/05 13:47:44;;;;;;;3.63;0.50;;;;;;;;;;5001431;28;20209;-58
2022/07/05 13:52:58;;;;;;;1.30;0.60;;;;;;;;;;5001445;28;20217;-59
2022/07/05 13:55:26;;;;;;;0.90;0.60;;;;;;;;;;5001274;28;20660;-59
2022/07/05 13:57:57;;;;;;;0.82;0.60;;;;;;;;;;5001418;28;20244;-58
2022/07/05 14:00:26;;;;;;;0.57;0.55;;;;;;;;;;5006839;28;20236;-59
2022/07/05 14:02:54;;;;;;;1.10;0.43;;;;;;;;;;5001468;28;20330;-59
2022/07/05 14:05:31;;;;;;;1.03;0.50;;;;;;;;;;5001458;28;20219;-59
2022/07/05 14:07:59;;;;;;;3.73;0.70;;;;;;;;;;5001642;28;20220;-58
2022/07/05 14:10:27;;;;;;;1.20;0.60;;;;;;;;;;5001582;28;20209;-59
2022/07/05 14:12:56;;;;;;;1.77;0.60;;;;;;;;;;5001329;28;20248;-58
2022/07/05 14:15:24;;;;;;;4.47;0.77;;;;;;;;;;5001388;28;20263;-59
2022/07/05 14:17:52;;;;;;;4.10;0.60;;;;;;;;;;5001629;28;20210;-59
2022/07/05 14:20:20;;;;;;;1.08;0.60;;;;;;;;;;5001422;28;20225;-59
2022/07/05 14:22:48;;;;;;;0.93;0.55;;;;;;;;;;5013349;28;20681;-59
2022/07/05 14:25:16;;;;;;;2.38;0.75;;;;;;;;;;5011278;28;20204;-59
2022/07/05 14:27:44;;;;;;;0.82;0.60;;;;;;;;;;5000883;28;20212;-59
2022/07/05 14:30:14;;;;;;;0.80;0.80;;;;;;;;;;5003982;28;20712;-59
2022/07/05 14:32:42;;;;;;;3.35;0.68;;;;;;;;;;5006962;28;20551;-59
2022/07/05 14:35:16;;;;;;;1.02;0.60;;;;;;;;;;5015053;28;20231;-59
2022/07/05 14:41:12;;;;;;;3.00;0.80;;;;;;;;;;5004840;28;20319;-59
2022/07/05 14:43:41;;;;;;;0.63;0.50;;;;;;;;;;4998455;28;20233;-59
2022/07/05 14:46:12;;;;;;;0.43;0.43;;;;;;;;;;4999742;28;20216;-59
2022/07/05 14:48:41;;;;;;;0.77;0.70;;;;;;;;;;5000760;28;20216;-59
2022/07/05 14:51:08;;;;;;;0.77;0.75;;;;;;;;;;5000594;28;20212;-59
2022/07/05 14:53:36;;;;;;;1.42;0.60;;;;;;;;;;5000588;28;20263;-59
2022/07/05 14:56:05;;;;;;;1.75;0.80;;;;;;;;;;5000304;28;20236;-59
2022/07/05 14:58:33;;;;;;;1.95;0.80;;;;;;;;;;5000681;28;20246;-59
2022/07/05 15:01:01;;;;;;;1.77;0.75;;;;;;;;;;5000146;28;20576;-59
2022/07/05 15:03:30;;;;;;;2.43;0.70;;;;;;;;;;5000191;28;20231;-59
2022/07/05 15:05:58;;;;;;;2.20;0.75;;;;;;;;;;5000658;28;20213;-59
2022/07/05 15:08:27;;;;;;;0.75;0.73;;;;;;;;;;4998756;28;20849;-59
2022/07/05 15:10:55;;;;;;;1.20;0.60;;;;;;;;;;5003463;28;20262;-59
2022/07/05 15:13:25;;;;;;;0.50;0.50;;;;;;;;;;5006064;28;20258;-59
2022/07/05 15:15:53;;;;;;;2.67;0.70;;;;;;;;;;4999475;28;20277;-59
2022/07/05 15:18:21;;;;;;;1.70;0.97;;;;;;;;;;5003156;28;20196;-59
2022/07/05 15:20:51;;;;;;;0.60;0.57;;;;;;;;;;5003837;28;20209;-59
2022/07/05 15:23:27;;;;;;;1.27;0.70;;;;;;;;;;5010234;28;20226;-59
2022/07/05 15:25:57;;;;;;;1.30;0.70;;;;;;;;;;5003327;28;20225;-59
2022/07/05 15:28:25;;;;;;;0.70;0.50;;;;;;;;;;5005918;28;20242;-59